sensor_id;sensor_type;location;lat;lon;timestamp;P1;durP1;ratioP1;P2;durP2;ratioP2
21334;SDS011;10826;52.536;13.432;2022-12-17T00:02:00;57.80;;;22.53;;
21334;SDS011;10826;52.536;13.432;2022-12-17T00:04:44;51.87;;;20.40;;
21334;SDS011;10826;52.536;13.432;2022-12-17T00:07:29;54.93;;;21.67;;
21334;SDS011;10826;52.536;13.432;2022-12-17T00:10:13;54.27;;;22.17;;
21334;SDS011;10826;52.536;13.432;2022-12-17T00:12:58;62.17;;;23.13;;
21334;SDS011;10826;52.536;13.432;2022-12-17T00:15:48;54.50;;;21.93;;
21334;SDS011;10826;52.536;13.432;2022-12-17T00:18:37;52.20;;;20.73;;
21334;SDS011;10826;52.536;13.432;2022-12-17T00:21:22;59.37;;;23.63;;
21334;SDS011;10826;52.536;13.432;2022-12-17T00:24:06;61.63;;;21.90;;
21334;SDS011;10826;52.536;13.432;2022-12-17T00:26:50;58.90;;;21.03;;
21334;SDS011;10826;52.536;13.432;2022-12-17T00:29:35;45.50;;;18.53;;
21334;SDS011;10826;52.536;13.432;2022-12-17T00:32:19;53.80;;;20.40;;
21334;SDS011;10826;52.536;13.432;2022-12-17T00:35:04;57.00;;;23.07;;
21334;SDS011;10826;52.536;13.432;2022-12-17T00:37:49;57.53;;;23.97;;
21334;SDS011;10826;52.536;13.432;2022-12-17T00:40:33;58.67;;;23.77;;
21334;SDS011;10826;52.536;13.432;2022-12-17T00:43:18;44.00;;;19.43;;
21334;SDS011;10826;52.536;13.432;2022-12-17T00:46:02;52.07;;;19.70;;
21334;SDS011;10826;52.536;13.432;2022-12-17T00:48:46;54.97;;;20.17;;
21334;SDS011;10826;52.536;13.432;2022-12-17T00:51:31;52.40;;;20.60;;
21334;SDS011;10826;52.536;13.432;2022-12-17T00:54:15;55.90;;;21.07;;
21334;SDS011;10826;52.536;13.432;2022-12-17T00:57:00;61.10;;;21.23;;
21334;SDS011;10826;52.536;13.432;2022-12-17T00:59:44;48.97;;;19.37;;
21334;SDS011;10826;52.536;13.432;2022-12-17T01:02:29;64.47;;;22.97;;
21334;SDS011;10826;52.536;13.432;2022-12-17T01:05:13;56.07;;;20.83;;
21334;SDS011;10826;52.536;13.432;2022-12-17T01:08:05;64.37;;;24.53;;
21334;SDS011;10826;52.536;13.432;2022-12-17T01:11:02;63.63;;;22.53;;
21334;SDS011;10826;52.536;13.432;2022-12-17T01:13:49;57.90;;;22.90;;
21334;SDS011;10826;52.536;13.432;2022-12-17T01:16:36;56.60;;;21.37;;
21334;SDS011;10826;52.536;13.432;2022-12-17T01:19:20;50.23;;;21.63;;
21334;SDS011;10826;52.536;13.432;2022-12-17T01:22:05;55.20;;;20.53;;
21334;SDS011;10826;52.536;13.432;2022-12-17T01:24:51;65.03;;;23.20;;
21334;SDS011;10826;52.536;13.432;2022-12-17T01:27:35;53.23;;;20.27;;
21334;SDS011;10826;52.536;13.432;2022-12-17T01:30:19;67.77;;;23.90;;
21334;SDS011;10826;52.536;13.432;2022-12-17T01:33:04;61.77;;;21.83;;
21334;SDS011;10826;52.536;13.432;2022-12-17T01:35:54;65.53;;;24.23;;
21334;SDS011;10826;52.536;13.432;2022-12-17T01:38:40;64.53;;;22.40;;
21334;SDS011;10826;52.536;13.432;2022-12-17T01:41:25;71.37;;;23.40;;
21334;SDS011;10826;52.536;13.432;2022-12-17T01:44:55;63.00;;;22.60;;
21334;SDS011;10826;52.536;13.432;2022-12-17T01:50:36;59.67;;;22.50;;
21334;SDS011;10826;52.536;13.432;2022-12-17T01:53:31;57.03;;;21.53;;
21334;SDS011;10826;52.536;13.432;2022-12-17T01:56:20;98.33;;;35.83;;
21334;SDS011;10826;52.536;13.432;2022-12-17T01:59:05;68.13;;;23.63;;
21334;SDS011;10826;52.536;13.432;2022-12-17T02:01:52;69.83;;;22.87;;
21334;SDS011;10826;52.536;13.432;2022-12-17T02:04:37;96.10;;;31.57;;
21334;SDS011;10826;52.536;13.432;2022-12-17T02:14:07;70.73;;;25.50;;
21334;SDS011;10826;52.536;13.432;2022-12-17T02:17:21;94.77;;;31.53;;
21334;SDS011;10826;52.536;13.432;2022-12-17T02:20:23;78.30;;;25.83;;
21334;SDS011;10826;52.536;13.432;2022-12-17T02:27:00;78.67;;;27.70;;
21334;SDS011;10826;52.536;13.432;2022-12-17T02:29:55;57.40;;;21.57;;
21334;SDS011;10826;52.536;13.432;2022-12-17T02:32:46;68.10;;;22.40;;
21334;SDS011;10826;52.536;13.432;2022-12-17T02:35:35;69.30;;;24.67;;
21334;SDS011;10826;52.536;13.432;2022-12-17T02:38:36;66.50;;;25.03;;
21334;SDS011;10826;52.536;13.432;2022-12-17T02:41:25;60.73;;;21.90;;
21334;SDS011;10826;52.536;13.432;2022-12-17T02:44:15;64.80;;;23.17;;
21334;SDS011;10826;52.536;13.432;2022-12-17T02:47:03;58.23;;;22.67;;
21334;SDS011;10826;52.536;13.432;2022-12-17T02:49:52;64.20;;;22.57;;
21334;SDS011;10826;52.536;13.432;2022-12-17T02:52:41;67.53;;;21.83;;
21334;SDS011;10826;52.536;13.432;2022-12-17T02:55:30;62.90;;;21.53;;
21334;SDS011;10826;52.536;13.432;2022-12-17T02:58:16;57.93;;;21.57;;
21334;SDS011;10826;52.536;13.432;2022-12-17T03:01:01;62.37;;;21.63;;
21334;SDS011;10826;52.536;13.432;2022-12-17T03:03:45;64.67;;;20.83;;
21334;SDS011;10826;52.536;13.432;2022-12-17T03:06:30;66.37;;;24.00;;
21334;SDS011;10826;52.536;13.432;2022-12-17T03:09:14;59.70;;;21.63;;
21334;SDS011;10826;52.536;13.432;2022-12-17T03:11:59;60.80;;;21.73;;
21334;SDS011;10826;52.536;13.432;2022-12-17T03:14:43;56.73;;;22.33;;
21334;SDS011;10826;52.536;13.432;2022-12-17T03:17:28;60.60;;;21.57;;
21334;SDS011;10826;52.536;13.432;2022-12-17T03:20:13;57.17;;;21.27;;
21334;SDS011;10826;52.536;13.432;2022-12-17T03:23:02;47.50;;;18.23;;
21334;SDS011;10826;52.536;13.432;2022-12-17T03:25:49;49.17;;;20.10;;
21334;SDS011;10826;52.536;13.432;2022-12-17T03:28:33;49.37;;;20.03;;
21334;SDS011;10826;52.536;13.432;2022-12-17T03:31:18;57.33;;;22.20;;
21334;SDS011;10826;52.536;13.432;2022-12-17T03:34:02;52.43;;;20.07;;
21334;SDS011;10826;52.536;13.432;2022-12-17T03:36:46;39.20;;;15.93;;
21334;SDS011;10826;52.536;13.432;2022-12-17T03:39:31;43.07;;;17.63;;
21334;SDS011;10826;52.536;13.432;2022-12-17T03:42:15;36.90;;;16.30;;
21334;SDS011;10826;52.536;13.432;2022-12-17T03:44:59;45.73;;;17.47;;
21334;SDS011;10826;52.536;13.432;2022-12-17T03:47:44;45.27;;;17.10;;
21334;SDS011;10826;52.536;13.432;2022-12-17T03:50:28;51.60;;;18.33;;
21334;SDS011;10826;52.536;13.432;2022-12-17T03:53:13;43.53;;;16.43;;
21334;SDS011;10826;52.536;13.432;2022-12-17T03:55:58;40.40;;;16.83;;
21334;SDS011;10826;52.536;13.432;2022-12-17T03:58:42;47.03;;;17.07;;
21334;SDS011;10826;52.536;13.432;2022-12-17T04:01:27;42.90;;;16.37;;
21334;SDS011;10826;52.536;13.432;2022-12-17T04:04:12;47.70;;;17.10;;
21334;SDS011;10826;52.536;13.432;2022-12-17T04:06:57;42.37;;;18.20;;
21334;SDS011;10826;52.536;13.432;2022-12-17T04:09:41;45.00;;;17.30;;
21334;SDS011;10826;52.536;13.432;2022-12-17T04:12:26;49.53;;;17.57;;
21334;SDS011;10826;52.536;13.432;2022-12-17T04:15:10;48.83;;;18.20;;
21334;SDS011;10826;52.536;13.432;2022-12-17T04:17:54;45.07;;;17.67;;
21334;SDS011;10826;52.536;13.432;2022-12-17T04:20:39;46.40;;;17.43;;
21334;SDS011;10826;52.536;13.432;2022-12-17T04:23:23;52.30;;;18.47;;
21334;SDS011;10826;52.536;13.432;2022-12-17T04:26:08;50.00;;;17.40;;
21334;SDS011;10826;52.536;13.432;2022-12-17T04:28:52;48.20;;;17.63;;
21334;SDS011;10826;52.536;13.432;2022-12-17T04:31:37;52.57;;;18.27;;
21334;SDS011;10826;52.536;13.432;2022-12-17T04:34:21;54.00;;;18.53;;
21334;SDS011;10826;52.536;13.432;2022-12-17T04:37:05;56.37;;;18.90;;
21334;SDS011;10826;52.536;13.432;2022-12-17T04:39:50;47.73;;;17.57;;
21334;SDS011;10826;52.536;13.432;2022-12-17T04:42:34;45.70;;;17.90;;
21334;SDS011;10826;52.536;13.432;2022-12-17T04:45:19;52.30;;;19.17;;
21334;SDS011;10826;52.536;13.432;2022-12-17T04:48:04;45.17;;;17.33;;
21334;SDS011;10826;52.536;13.432;2022-12-17T04:50:50;57.83;;;18.93;;
21334;SDS011;10826;52.536;13.432;2022-12-17T04:53:35;54.50;;;18.40;;
21334;SDS011;10826;52.536;13.432;2022-12-17T04:56:20;45.07;;;17.67;;
21334;SDS011;10826;52.536;13.432;2022-12-17T04:59:05;63.00;;;20.30;;
21334;SDS011;10826;52.536;13.432;2022-12-17T05:01:49;55.33;;;17.43;;
21334;SDS011;10826;52.536;13.432;2022-12-17T05:04:34;53.27;;;17.67;;
21334;SDS011;10826;52.536;13.432;2022-12-17T05:07:19;54.27;;;18.90;;
21334;SDS011;10826;52.536;13.432;2022-12-17T05:10:04;53.60;;;18.40;;
21334;SDS011;10826;52.536;13.432;2022-12-17T05:12:58;45.50;;;17.10;;
21334;SDS011;10826;52.536;13.432;2022-12-17T05:15:44;51.60;;;17.03;;
21334;SDS011;10826;52.536;13.432;2022-12-17T05:18:30;47.40;;;16.90;;
21334;SDS011;10826;52.536;13.432;2022-12-17T05:21:14;53.87;;;18.37;;
21334;SDS011;10826;52.536;13.432;2022-12-17T05:23:59;46.50;;;18.10;;
21334;SDS011;10826;52.536;13.432;2022-12-17T05:26:44;44.13;;;17.40;;
21334;SDS011;10826;52.536;13.432;2022-12-17T05:29:28;53.93;;;19.17;;
21334;SDS011;10826;52.536;13.432;2022-12-17T05:32:13;50.27;;;18.73;;
21334;SDS011;10826;52.536;13.432;2022-12-17T05:34:57;41.87;;;17.10;;
21334;SDS011;10826;52.536;13.432;2022-12-17T05:37:41;46.10;;;19.30;;
21334;SDS011;10826;52.536;13.432;2022-12-17T05:40:26;52.60;;;18.73;;
21334;SDS011;10826;52.536;13.432;2022-12-17T05:43:11;50.87;;;19.63;;
21334;SDS011;10826;52.536;13.432;2022-12-17T05:45:56;48.30;;;18.17;;
21334;SDS011;10826;52.536;13.432;2022-12-17T05:48:40;46.60;;;18.00;;
21334;SDS011;10826;52.536;13.432;2022-12-17T05:51:25;49.20;;;18.03;;
21334;SDS011;10826;52.536;13.432;2022-12-17T05:54:09;44.27;;;17.33;;
21334;SDS011;10826;52.536;13.432;2022-12-17T05:56:53;39.43;;;16.80;;
21334;SDS011;10826;52.536;13.432;2022-12-17T05:59:38;39.57;;;17.00;;
21334;SDS011;10826;52.536;13.432;2022-12-17T06:02:22;44.07;;;17.40;;
21334;SDS011;10826;52.536;13.432;2022-12-17T06:05:07;38.17;;;16.80;;
21334;SDS011;10826;52.536;13.432;2022-12-17T06:07:52;42.50;;;18.27;;
21334;SDS011;10826;52.536;13.432;2022-12-17T06:10:36;45.60;;;17.70;;
21334;SDS011;10826;52.536;13.432;2022-12-17T06:13:21;42.27;;;17.40;;
21334;SDS011;10826;52.536;13.432;2022-12-17T06:16:05;43.57;;;17.40;;
21334;SDS011;10826;52.536;13.432;2022-12-17T06:18:50;43.60;;;18.33;;
21334;SDS011;10826;52.536;13.432;2022-12-17T06:21:34;43.27;;;18.03;;
21334;SDS011;10826;52.536;13.432;2022-12-17T06:24:18;47.10;;;18.43;;
21334;SDS011;10826;52.536;13.432;2022-12-17T06:27:03;44.00;;;18.43;;
21334;SDS011;10826;52.536;13.432;2022-12-17T06:29:47;40.27;;;17.93;;
21334;SDS011;10826;52.536;13.432;2022-12-17T06:32:32;42.50;;;18.67;;
21334;SDS011;10826;52.536;13.432;2022-12-17T06:35:16;47.33;;;19.03;;
21334;SDS011;10826;52.536;13.432;2022-12-17T06:38:01;41.77;;;18.00;;
21334;SDS011;10826;52.536;13.432;2022-12-17T06:40:49;44.30;;;17.83;;
21334;SDS011;10826;52.536;13.432;2022-12-17T06:43:35;39.67;;;18.20;;
21334;SDS011;10826;52.536;13.432;2022-12-17T06:46:20;47.47;;;19.03;;
21334;SDS011;10826;52.536;13.432;2022-12-17T06:49:05;46.10;;;18.17;;
21334;SDS011;10826;52.536;13.432;2022-12-17T06:51:49;44.77;;;18.40;;
21334;SDS011;10826;52.536;13.432;2022-12-17T06:54:34;48.07;;;18.30;;
21334;SDS011;10826;52.536;13.432;2022-12-17T06:57:18;39.93;;;17.60;;
21334;SDS011;10826;52.536;13.432;2022-12-17T07:00:03;46.60;;;17.83;;
21334;SDS011;10826;52.536;13.432;2022-12-17T07:02:53;44.67;;;17.63;;
21334;SDS011;10826;52.536;13.432;2022-12-17T07:05:41;36.60;;;16.63;;
21334;SDS011;10826;52.536;13.432;2022-12-17T07:08:27;42.43;;;17.87;;
21334;SDS011;10826;52.536;13.432;2022-12-17T07:11:12;50.27;;;19.97;;
21334;SDS011;10826;52.536;13.432;2022-12-17T07:13:56;39.23;;;18.47;;
21334;SDS011;10826;52.536;13.432;2022-12-17T07:16:40;52.27;;;17.63;;
21334;SDS011;10826;52.536;13.432;2022-12-17T07:19:25;40.30;;;17.27;;
21334;SDS011;10826;52.536;13.432;2022-12-17T07:22:09;43.17;;;17.70;;
21334;SDS011;10826;52.536;13.432;2022-12-17T07:24:54;44.97;;;19.07;;
21334;SDS011;10826;52.536;13.432;2022-12-17T07:27:38;46.73;;;17.63;;
21334;SDS011;10826;52.536;13.432;2022-12-17T07:30:22;48.63;;;19.90;;
21334;SDS011;10826;52.536;13.432;2022-12-17T07:33:07;50.60;;;19.83;;
21334;SDS011;10826;52.536;13.432;2022-12-17T07:35:54;49.03;;;18.67;;
21334;SDS011;10826;52.536;13.432;2022-12-17T07:38:39;51.30;;;18.50;;
21334;SDS011;10826;52.536;13.432;2022-12-17T07:41:24;49.00;;;19.63;;
21334;SDS011;10826;52.536;13.432;2022-12-17T07:44:09;54.63;;;21.27;;
21334;SDS011;10826;52.536;13.432;2022-12-17T07:46:53;49.67;;;19.43;;
21334;SDS011;10826;52.536;13.432;2022-12-17T07:49:38;51.33;;;20.40;;
21334;SDS011;10826;52.536;13.432;2022-12-17T07:52:23;50.73;;;21.90;;
21334;SDS011;10826;52.536;13.432;2022-12-17T07:55:07;46.37;;;19.10;;
21334;SDS011;10826;52.536;13.432;2022-12-17T07:57:59;41.73;;;18.87;;
21334;SDS011;10826;52.536;13.432;2022-12-17T08:00:45;35.17;;;17.57;;
21334;SDS011;10826;52.536;13.432;2022-12-17T08:03:30;51.30;;;19.80;;
21334;SDS011;10826;52.536;13.432;2022-12-17T08:06:15;48.87;;;19.03;;
21334;SDS011;10826;52.536;13.432;2022-12-17T08:09:00;40.20;;;18.70;;
21334;SDS011;10826;52.536;13.432;2022-12-17T08:11:44;42.60;;;18.13;;
21334;SDS011;10826;52.536;13.432;2022-12-17T08:14:29;43.77;;;19.40;;
21334;SDS011;10826;52.536;13.432;2022-12-17T08:17:13;49.37;;;20.17;;
21334;SDS011;10826;52.536;13.432;2022-12-17T08:19:57;50.70;;;20.10;;
21334;SDS011;10826;52.536;13.432;2022-12-17T08:22:42;51.43;;;21.53;;
21334;SDS011;10826;52.536;13.432;2022-12-17T08:25:27;45.20;;;20.33;;
21334;SDS011;10826;52.536;13.432;2022-12-17T08:28:11;45.97;;;20.97;;
21334;SDS011;10826;52.536;13.432;2022-12-17T08:30:55;47.30;;;20.20;;
21334;SDS011;10826;52.536;13.432;2022-12-17T08:33:40;45.83;;;19.93;;
21334;SDS011;10826;52.536;13.432;2022-12-17T08:36:24;44.10;;;19.90;;
21334;SDS011;10826;52.536;13.432;2022-12-17T08:39:09;44.10;;;18.17;;
21334;SDS011;10826;52.536;13.432;2022-12-17T08:41:53;44.97;;;20.17;;
21334;SDS011;10826;52.536;13.432;2022-12-17T08:44:37;41.20;;;19.40;;
21334;SDS011;10826;52.536;13.432;2022-12-17T08:47:22;41.27;;;19.40;;
21334;SDS011;10826;52.536;13.432;2022-12-17T08:50:07;46.27;;;20.20;;
21334;SDS011;10826;52.536;13.432;2022-12-17T08:52:56;41.90;;;18.63;;
21334;SDS011;10826;52.536;13.432;2022-12-17T08:55:46;42.67;;;19.10;;
21334;SDS011;10826;52.536;13.432;2022-12-17T08:58:31;43.23;;;19.00;;
21334;SDS011;10826;52.536;13.432;2022-12-17T09:01:16;47.40;;;20.53;;
21334;SDS011;10826;52.536;13.432;2022-12-17T09:04:00;46.53;;;20.43;;
21334;SDS011;10826;52.536;13.432;2022-12-17T09:06:45;46.70;;;19.33;;
21334;SDS011;10826;52.536;13.432;2022-12-17T09:09:29;42.50;;;19.60;;
21334;SDS011;10826;52.536;13.432;2022-12-17T09:12:14;41.93;;;19.70;;
21334;SDS011;10826;52.536;13.432;2022-12-17T09:14:58;39.17;;;18.53;;
21334;SDS011;10826;52.536;13.432;2022-12-17T09:17:43;42.93;;;19.17;;
21334;SDS011;10826;52.536;13.432;2022-12-17T09:20:28;39.13;;;18.37;;
21334;SDS011;10826;52.536;13.432;2022-12-17T09:23:15;35.17;;;16.10;;
21334;SDS011;10826;52.536;13.432;2022-12-17T09:26:01;44.17;;;19.67;;
21334;SDS011;10826;52.536;13.432;2022-12-17T09:28:45;67.27;;;29.67;;
21334;SDS011;10826;52.536;13.432;2022-12-17T09:31:30;72.93;;;31.90;;
21334;SDS011;10826;52.536;13.432;2022-12-17T09:34:16;42.43;;;21.33;;
21334;SDS011;10826;52.536;13.432;2022-12-17T09:37:01;45.43;;;19.40;;
21334;SDS011;10826;52.536;13.432;2022-12-17T09:39:46;34.63;;;17.57;;
21334;SDS011;10826;52.536;13.432;2022-12-17T09:45:47;39.47;;;17.70;;
21334;SDS011;10826;52.536;13.432;2022-12-17T09:51:43;42.23;;;20.97;;
21334;SDS011;10826;52.536;13.432;2022-12-17T09:54:47;42.80;;;20.17;;
21334;SDS011;10826;52.536;13.432;2022-12-17T09:57:35;40.20;;;18.47;;
21334;SDS011;10826;52.536;13.432;2022-12-17T10:00:26;40.80;;;17.73;;
21334;SDS011;10826;52.536;13.432;2022-12-17T10:03:13;38.07;;;19.13;;
21334;SDS011;10826;52.536;13.432;2022-12-17T10:06:07;39.07;;;18.33;;
21334;SDS011;10826;52.536;13.432;2022-12-17T10:09:00;45.43;;;18.43;;
21334;SDS011;10826;52.536;13.432;2022-12-17T10:11:56;41.60;;;20.03;;
21334;SDS011;10826;52.536;13.432;2022-12-17T10:14:55;48.13;;;19.47;;
21334;SDS011;10826;52.536;13.432;2022-12-17T10:17:39;46.27;;;18.83;;
21334;SDS011;10826;52.536;13.432;2022-12-17T10:20:27;43.63;;;18.70;;
21334;SDS011;10826;52.536;13.432;2022-12-17T10:23:41;49.67;;;18.20;;
21334;SDS011;10826;52.536;13.432;2022-12-17T10:26:27;41.10;;;18.90;;
21334;SDS011;10826;52.536;13.432;2022-12-17T10:29:16;49.30;;;19.23;;
21334;SDS011;10826;52.536;13.432;2022-12-17T10:32:25;38.20;;;17.63;;
21334;SDS011;10826;52.536;13.432;2022-12-17T10:38:20;43.70;;;18.73;;
21334;SDS011;10826;52.536;13.432;2022-12-17T10:41:33;48.37;;;19.47;;
21334;SDS011;10826;52.536;13.432;2022-12-17T10:44:19;47.83;;;20.27;;
21334;SDS011;10826;52.536;13.432;2022-12-17T10:47:14;47.73;;;19.73;;
21334;SDS011;10826;52.536;13.432;2022-12-17T10:50:11;43.97;;;19.30;;
21334;SDS011;10826;52.536;13.432;2022-12-17T10:53:00;46.30;;;18.00;;
21334;SDS011;10826;52.536;13.432;2022-12-17T10:55:54;43.93;;;18.67;;
21334;SDS011;10826;52.536;13.432;2022-12-17T10:58:48;47.57;;;19.27;;
21334;SDS011;10826;52.536;13.432;2022-12-17T11:01:46;52.37;;;20.57;;
21334;SDS011;10826;52.536;13.432;2022-12-17T11:04:31;46.80;;;19.63;;
21334;SDS011;10826;52.536;13.432;2022-12-17T11:07:23;52.90;;;20.47;;
21334;SDS011;10826;52.536;13.432;2022-12-17T11:10:38;50.50;;;19.83;;
21334;SDS011;10826;52.536;13.432;2022-12-17T11:16:23;59.30;;;21.37;;
21334;SDS011;10826;52.536;13.432;2022-12-17T11:25:39;42.20;;;19.27;;
21334;SDS011;10826;52.536;13.432;2022-12-17T11:28:31;52.37;;;20.97;;
21334;SDS011;10826;52.536;13.432;2022-12-17T11:35:00;49.87;;;20.90;;
21334;SDS011;10826;52.536;13.432;2022-12-17T11:38:28;54.17;;;20.97;;
21334;SDS011;10826;52.536;13.432;2022-12-17T11:42:03;53.77;;;21.47;;
21334;SDS011;10826;52.536;13.432;2022-12-17T11:45:09;48.77;;;20.33;;
21334;SDS011;10826;52.536;13.432;2022-12-17T11:48:15;51.30;;;21.83;;
21334;SDS011;10826;52.536;13.432;2022-12-17T11:51:37;57.00;;;21.93;;
21334;SDS011;10826;52.536;13.432;2022-12-17T11:54:47;54.53;;;22.60;;
21334;SDS011;10826;52.536;13.432;2022-12-17T11:58:10;50.40;;;20.47;;
21334;SDS011;10826;52.536;13.432;2022-12-17T12:01:29;59.43;;;23.30;;
21334;SDS011;10826;52.536;13.432;2022-12-17T12:04:37;62.97;;;22.90;;
21334;SDS011;10826;52.536;13.432;2022-12-17T12:14:22;68.73;;;24.57;;
21334;SDS011;10826;52.536;13.432;2022-12-17T12:30:21;59.17;;;23.33;;
21334;SDS011;10826;52.536;13.432;2022-12-17T12:36:33;54.53;;;23.77;;
21334;SDS011;10826;52.536;13.432;2022-12-17T12:39:45;61.23;;;25.47;;
21334;SDS011;10826;52.536;13.432;2022-12-17T12:42:36;60.47;;;22.87;;
21334;SDS011;10826;52.536;13.432;2022-12-17T12:45:49;58.60;;;23.60;;
21334;SDS011;10826;52.536;13.432;2022-12-17T12:52:12;54.23;;;21.73;;
21334;SDS011;10826;52.536;13.432;2022-12-17T12:55:07;59.27;;;24.07;;
21334;SDS011;10826;52.536;13.432;2022-12-17T13:03:59;55.43;;;23.13;;
21334;SDS011;10826;52.536;13.432;2022-12-17T13:17:27;54.83;;;21.23;;
21334;SDS011;10826;52.536;13.432;2022-12-17T13:22:49;55.97;;;21.90;;
21334;SDS011;10826;52.536;13.432;2022-12-17T13:25:28;52.50;;;21.67;;
21334;SDS011;10826;52.536;13.432;2022-12-17T13:27:53;52.50;;;21.03;;
21334;SDS011;10826;52.536;13.432;2022-12-17T13:30:21;57.87;;;21.10;;
21334;SDS011;10826;52.536;13.432;2022-12-17T13:33:14;54.77;;;21.37;;
21334;SDS011;10826;52.536;13.432;2022-12-17T13:41:38;51.03;;;20.33;;
21334;SDS011;10826;52.536;13.432;2022-12-17T13:44:49;42.90;;;19.70;;
21334;SDS011;10826;52.536;13.432;2022-12-17T13:47:20;48.17;;;20.17;;
21334;SDS011;10826;52.536;13.432;2022-12-17T13:49:56;41.60;;;18.97;;
21334;SDS011;10826;52.536;13.432;2022-12-17T13:52:25;48.50;;;20.20;;
21334;SDS011;10826;52.536;13.432;2022-12-17T13:54:53;49.47;;;20.57;;
21334;SDS011;10826;52.536;13.432;2022-12-17T13:57:35;55.13;;;21.40;;
21334;SDS011;10826;52.536;13.432;2022-12-17T14:00:02;56.87;;;21.93;;
21334;SDS011;10826;52.536;13.432;2022-12-17T14:05:04;52.80;;;20.63;;
21334;SDS011;10826;52.536;13.432;2022-12-17T14:07:44;52.73;;;22.37;;
21334;SDS011;10826;52.536;13.432;2022-12-17T14:10:14;52.10;;;22.17;;
21334;SDS011;10826;52.536;13.432;2022-12-17T14:12:42;54.83;;;22.57;;
21334;SDS011;10826;52.536;13.432;2022-12-17T14:15:15;53.03;;;21.57;;
21334;SDS011;10826;52.536;13.432;2022-12-17T14:17:50;53.13;;;21.33;;
21334;SDS011;10826;52.536;13.432;2022-12-17T14:20:22;47.33;;;19.90;;
21334;SDS011;10826;52.536;13.432;2022-12-17T14:22:53;52.07;;;21.70;;
21334;SDS011;10826;52.536;13.432;2022-12-17T14:25:29;55.03;;;21.27;;
21334;SDS011;10826;52.536;13.432;2022-12-17T14:33:59;47.60;;;19.93;;
21334;SDS011;10826;52.536;13.432;2022-12-17T14:36:32;50.20;;;20.83;;
21334;SDS011;10826;52.536;13.432;2022-12-17T14:39:03;56.80;;;21.23;;
21334;SDS011;10826;52.536;13.432;2022-12-17T14:41:45;58.17;;;22.33;;
21334;SDS011;10826;52.536;13.432;2022-12-17T14:44:29;57.23;;;21.13;;
21334;SDS011;10826;52.536;13.432;2022-12-17T14:52:51;58.50;;;22.47;;
21334;SDS011;10826;52.536;13.432;2022-12-17T15:00:52;52.07;;;21.67;;
21334;SDS011;10826;52.536;13.432;2022-12-17T15:03:33;52.30;;;22.23;;
21334;SDS011;10826;52.536;13.432;2022-12-17T15:06:04;59.93;;;21.93;;
21334;SDS011;10826;52.536;13.432;2022-12-17T15:08:38;50.43;;;20.40;;
21334;SDS011;10826;52.536;13.432;2022-12-17T15:11:09;52.60;;;21.47;;
21334;SDS011;10826;52.536;13.432;2022-12-17T15:13:37;49.10;;;20.40;;
21334;SDS011;10826;52.536;13.432;2022-12-17T15:16:03;46.80;;;21.07;;
21334;SDS011;10826;52.536;13.432;2022-12-17T15:18:30;51.20;;;20.63;;
21334;SDS011;10826;52.536;13.432;2022-12-17T15:20:56;54.07;;;22.53;;
21334;SDS011;10826;52.536;13.432;2022-12-17T15:23:22;50.07;;;21.20;;
21334;SDS011;10826;52.536;13.432;2022-12-17T15:25:50;50.00;;;21.77;;
21334;SDS011;10826;52.536;13.432;2022-12-17T15:28:18;48.10;;;21.03;;
21334;SDS011;10826;52.536;13.432;2022-12-17T15:30:51;56.80;;;21.23;;
21334;SDS011;10826;52.536;13.432;2022-12-17T15:33:18;45.10;;;19.43;;
21334;SDS011;10826;52.536;13.432;2022-12-17T15:35:44;54.77;;;20.13;;
21334;SDS011;10826;52.536;13.432;2022-12-17T15:38:10;50.60;;;21.40;;
21334;SDS011;10826;52.536;13.432;2022-12-17T15:40:37;56.63;;;22.20;;
21334;SDS011;10826;52.536;13.432;2022-12-17T15:43:03;52.87;;;21.60;;
21334;SDS011;10826;52.536;13.432;2022-12-17T15:45:48;56.83;;;22.03;;
21334;SDS011;10826;52.536;13.432;2022-12-17T15:48:21;52.73;;;21.23;;
21334;SDS011;10826;52.536;13.432;2022-12-17T15:50:47;63.73;;;22.13;;
21334;SDS011;10826;52.536;13.432;2022-12-17T15:53:14;51.77;;;20.93;;
21334;SDS011;10826;52.536;13.432;2022-12-17T15:55:40;44.20;;;19.87;;
21334;SDS011;10826;52.536;13.432;2022-12-17T15:58:06;47.30;;;20.00;;
21334;SDS011;10826;52.536;13.432;2022-12-17T16:00:35;56.10;;;20.57;;
21334;SDS011;10826;52.536;13.432;2022-12-17T16:03:01;53.20;;;22.37;;
21334;SDS011;10826;52.536;13.432;2022-12-17T16:05:27;47.87;;;19.77;;
21334;SDS011;10826;52.536;13.432;2022-12-17T16:07:53;45.20;;;19.80;;
21334;SDS011;10826;52.536;13.432;2022-12-17T16:10:23;45.73;;;19.47;;
21334;SDS011;10826;52.536;13.432;2022-12-17T16:12:49;48.23;;;20.00;;
21334;SDS011;10826;52.536;13.432;2022-12-17T16:15:15;56.27;;;19.63;;
21334;SDS011;10826;52.536;13.432;2022-12-17T16:17:43;54.30;;;20.03;;
21334;SDS011;10826;52.536;13.432;2022-12-17T16:20:10;44.93;;;19.27;;
21334;SDS011;10826;52.536;13.432;2022-12-17T16:22:36;52.80;;;19.63;;
21334;SDS011;10826;52.536;13.432;2022-12-17T16:25:02;46.53;;;18.63;;
21334;SDS011;10826;52.536;13.432;2022-12-17T16:27:29;48.70;;;19.57;;
21334;SDS011;10826;52.536;13.432;2022-12-17T16:29:55;47.93;;;20.03;;
21334;SDS011;10826;52.536;13.432;2022-12-17T16:32:21;50.67;;;19.97;;
21334;SDS011;10826;52.536;13.432;2022-12-17T16:34:50;52.00;;;19.33;;
21334;SDS011;10826;52.536;13.432;2022-12-17T16:37:16;46.20;;;19.20;;
21334;SDS011;10826;52.536;13.432;2022-12-17T16:39:43;43.97;;;17.97;;
21334;SDS011;10826;52.536;13.432;2022-12-17T16:42:10;45.83;;;18.93;;
21334;SDS011;10826;52.536;13.432;2022-12-17T16:44:36;43.87;;;18.60;;
21334;SDS011;10826;52.536;13.432;2022-12-17T16:47:02;48.70;;;18.87;;
21334;SDS011;10826;52.536;13.432;2022-12-17T16:49:29;51.23;;;18.23;;
21334;SDS011;10826;52.536;13.432;2022-12-17T16:51:55;52.90;;;19.70;;
21334;SDS011;10826;52.536;13.432;2022-12-17T16:54:22;47.77;;;19.33;;
21334;SDS011;10826;52.536;13.432;2022-12-17T16:56:50;48.50;;;19.13;;
21334;SDS011;10826;52.536;13.432;2022-12-17T16:59:17;45.03;;;19.47;;
21334;SDS011;10826;52.536;13.432;2022-12-17T17:01:44;53.30;;;20.80;;
21334;SDS011;10826;52.536;13.432;2022-12-17T17:04:14;47.63;;;19.77;;
21334;SDS011;10826;52.536;13.432;2022-12-17T17:06:44;54.63;;;20.00;;
21334;SDS011;10826;52.536;13.432;2022-12-17T17:09:20;46.00;;;18.57;;
21334;SDS011;10826;52.536;13.432;2022-12-17T17:11:49;41.53;;;18.30;;
21334;SDS011;10826;52.536;13.432;2022-12-17T17:14:15;46.93;;;19.03;;
21334;SDS011;10826;52.536;13.432;2022-12-17T17:16:42;43.10;;;19.03;;
21334;SDS011;10826;52.536;13.432;2022-12-17T17:19:08;50.10;;;20.03;;
21334;SDS011;10826;52.536;13.432;2022-12-17T17:21:35;44.00;;;19.70;;
21334;SDS011;10826;52.536;13.432;2022-12-17T17:24:09;48.63;;;19.77;;
21334;SDS011;10826;52.536;13.432;2022-12-17T17:26:39;44.20;;;19.23;;
21334;SDS011;10826;52.536;13.432;2022-12-17T17:29:05;46.43;;;20.67;;
21334;SDS011;10826;52.536;13.432;2022-12-17T17:31:32;42.37;;;19.80;;